sensor_id;sensor_type;location;lat;lon;timestamp;P1;durP1;ratioP1;P2;durP2;ratioP2
6513;SDS011;3290;47.716;9.070;2022-08-21T00:01:09;3.67;;;3.20;;
6513;SDS011;3290;47.716;9.070;2022-08-21T00:03:38;3.23;;;2.73;;
6513;SDS011;3290;47.716;9.070;2022-08-21T00:06:04;3.97;;;2.87;;
6513;SDS011;3290;47.716;9.070;2022-08-21T00:08:30;6.03;;;3.20;;
6513;SDS011;3290;47.716;9.070;2022-08-21T00:10:55;3.97;;;3.20;;
6513;SDS011;3290;47.716;9.070;2022-08-21T00:13:21;4.27;;;2.90;;
6513;SDS011;3290;47.716;9.070;2022-08-21T00:15:46;7.10;;;3.13;;
6513;SDS011;3290;47.716;9.070;2022-08-21T00:18:13;4.60;;;3.97;;
6513;SDS011;3290;47.716;9.070;2022-08-21T00:20:41;5.47;;;3.77;;
6513;SDS011;3290;47.716;9.070;2022-08-21T00:23:07;5.03;;;4.00;;
6513;SDS011;3290;47.716;9.070;2022-08-21T00:25:33;4.60;;;3.20;;
6513;SDS011;3290;47.716;9.070;2022-08-21T00:27:59;3.90;;;3.20;;
6513;SDS011;3290;47.716;9.070;2022-08-21T00:30:26;5.47;;;3.70;;
6513;SDS011;3290;47.716;9.070;2022-08-21T00:32:53;3.53;;;2.83;;
6513;SDS011;3290;47.716;9.070;2022-08-21T00:35:21;6.00;;;3.40;;
6513;SDS011;3290;47.716;9.070;2022-08-21T00:37:49;5.70;;;3.37;;
6513;SDS011;3290;47.716;9.070;2022-08-21T00:40:17;6.80;;;4.30;;
6513;SDS011;3290;47.716;9.070;2022-08-21T00:42:45;7.27;;;4.10;;
6513;SDS011;3290;47.716;9.070;2022-08-21T00:45:11;5.43;;;4.10;;
6513;SDS011;3290;47.716;9.070;2022-08-21T00:47:37;9.87;;;4.50;;
6513;SDS011;3290;47.716;9.070;2022-08-21T00:50:03;6.33;;;3.87;;
6513;SDS011;3290;47.716;9.070;2022-08-21T00:52:31;3.70;;;3.40;;
6513;SDS011;3290;47.716;9.070;2022-08-21T00:54:58;6.50;;;3.43;;
6513;SDS011;3290;47.716;9.070;2022-08-21T00:57:59;5.63;;;3.33;;
6513;SDS011;3290;47.716;9.070;2022-08-21T01:00:21;6.63;;;3.70;;
6513;SDS011;3290;47.716;9.070;2022-08-21T01:02:49;5.93;;;3.90;;
6513;SDS011;3290;47.716;9.070;2022-08-21T01:05:14;7.53;;;3.63;;
6513;SDS011;3290;47.716;9.070;2022-08-21T01:07:40;5.10;;;3.83;;
6513;SDS011;3290;47.716;9.070;2022-08-21T01:10:07;5.27;;;4.07;;
6513;SDS011;3290;47.716;9.070;2022-08-21T01:12:34;4.40;;;4.00;;
6513;SDS011;3290;47.716;9.070;2022-08-21T01:15:00;7.70;;;4.50;;
6513;SDS011;3290;47.716;9.070;2022-08-21T01:17:28;5.50;;;4.80;;
6513;SDS011;3290;47.716;9.070;2022-08-21T01:19:57;5.23;;;4.80;;
6513;SDS011;3290;47.716;9.070;2022-08-21T01:22:23;6.40;;;5.13;;
6513;SDS011;3290;47.716;9.070;2022-08-21T01:24:48;5.23;;;4.73;;
6513;SDS011;3290;47.716;9.070;2022-08-21T01:27:15;7.77;;;5.77;;
6513;SDS011;3290;47.716;9.070;2022-08-21T01:30:24;7.50;;;6.30;;
6513;SDS011;3290;47.716;9.070;2022-08-21T01:32:36;7.30;;;6.60;;
6513;SDS011;3290;47.716;9.070;2022-08-21T01:35:02;8.20;;;5.90;;
6513;SDS011;3290;47.716;9.070;2022-08-21T01:37:28;12.10;;;6.70;;
6513;SDS011;3290;47.716;9.070;2022-08-21T01:39:54;8.70;;;7.10;;
6513;SDS011;3290;47.716;9.070;2022-08-21T01:42:19;6.90;;;6.20;;
6513;SDS011;3290;47.716;9.070;2022-08-21T01:44:44;14.37;;;7.40;;
6513;SDS011;3290;47.716;9.070;2022-08-21T01:47:11;12.93;;;7.50;;
6513;SDS011;3290;47.716;9.070;2022-08-21T01:49:38;17.10;;;7.30;;
6513;SDS011;3290;47.716;9.070;2022-08-21T01:52:04;10.07;;;6.77;;
6513;SDS011;3290;47.716;9.070;2022-08-21T01:54:30;9.83;;;7.10;;
6513;SDS011;3290;47.716;9.070;2022-08-21T01:56:56;7.50;;;6.43;;
6513;SDS011;3290;47.716;9.070;2022-08-21T01:59:24;8.20;;;7.23;;
6513;SDS011;3290;47.716;9.070;2022-08-21T02:01:49;7.20;;;6.50;;
6513;SDS011;3290;47.716;9.070;2022-08-21T02:04:15;11.73;;;7.87;;
6513;SDS011;3290;47.716;9.070;2022-08-21T02:06:41;9.77;;;8.17;;
6513;SDS011;3290;47.716;9.070;2022-08-21T02:09:09;9.03;;;7.53;;
6513;SDS011;3290;47.716;9.070;2022-08-21T02:11:35;8.70;;;7.60;;
6513;SDS011;3290;47.716;9.070;2022-08-21T02:14:05;9.23;;;8.23;;
6513;SDS011;3290;47.716;9.070;2022-08-21T02:16:40;11.63;;;8.30;;
6513;SDS011;3290;47.716;9.070;2022-08-21T02:19:07;9.73;;;7.90;;
6513;SDS011;3290;47.716;9.070;2022-08-21T02:21:33;8.07;;;6.30;;
6513;SDS011;3290;47.716;9.070;2022-08-21T02:23:59;5.60;;;5.07;;
6513;SDS011;3290;47.716;9.070;2022-08-21T02:26:24;6.80;;;4.47;;
6513;SDS011;3290;47.716;9.070;2022-08-21T02:28:50;6.30;;;4.83;;
6513;SDS011;3290;47.716;9.070;2022-08-21T02:31:16;5.17;;;4.67;;
6513;SDS011;3290;47.716;9.070;2022-08-21T02:33:41;6.57;;;5.63;;
6513;SDS011;3290;47.716;9.070;2022-08-21T02:36:07;7.00;;;6.30;;
6513;SDS011;3290;47.716;9.070;2022-08-21T02:38:34;6.00;;;4.90;;
6513;SDS011;3290;47.716;9.070;2022-08-21T02:41:03;6.97;;;5.70;;
6513;SDS011;3290;47.716;9.070;2022-08-21T02:43:32;8.00;;;7.27;;
6513;SDS011;3290;47.716;9.070;2022-08-21T02:45:58;6.47;;;5.87;;
6513;SDS011;3290;47.716;9.070;2022-08-21T02:48:25;8.10;;;7.17;;
6513;SDS011;3290;47.716;9.070;2022-08-21T02:50:55;8.20;;;7.40;;
6513;SDS011;3290;47.716;9.070;2022-08-21T02:53:22;8.30;;;7.27;;
6513;SDS011;3290;47.716;9.070;2022-08-21T02:55:49;10.00;;;8.37;;
6513;SDS011;3290;47.716;9.070;2022-08-21T02:58:16;9.30;;;7.07;;
6513;SDS011;3290;47.716;9.070;2022-08-21T03:00:45;10.00;;;7.80;;
6513;SDS011;3290;47.716;9.070;2022-08-21T03:03:11;8.50;;;7.07;;
6513;SDS011;3290;47.716;9.070;2022-08-21T03:05:38;9.37;;;8.00;;
6513;SDS011;3290;47.716;9.070;2022-08-21T03:08:06;11.00;;;7.30;;
6513;SDS011;3290;47.716;9.070;2022-08-21T03:10:35;8.73;;;7.40;;
6513;SDS011;3290;47.716;9.070;2022-08-21T03:13:01;8.37;;;7.17;;
6513;SDS011;3290;47.716;9.070;2022-08-21T03:15:28;9.23;;;8.27;;
6513;SDS011;3290;47.716;9.070;2022-08-21T03:17:54;9.23;;;8.33;;
6513;SDS011;3290;47.716;9.070;2022-08-21T03:20:22;10.40;;;9.03;;
6513;SDS011;3290;47.716;9.070;2022-08-21T03:22:49;16.03;;;8.93;;
6513;SDS011;3290;47.716;9.070;2022-08-21T03:25:15;11.90;;;8.80;;
6513;SDS011;3290;47.716;9.070;2022-08-21T03:27:41;10.00;;;8.50;;
6513;SDS011;3290;47.716;9.070;2022-08-21T03:30:07;10.10;;;8.00;;
6513;SDS011;3290;47.716;9.070;2022-08-21T03:32:34;10.47;;;8.50;;
6513;SDS011;3290;47.716;9.070;2022-08-21T03:35:01;11.30;;;9.30;;
6513;SDS011;3290;47.716;9.070;2022-08-21T03:37:27;9.30;;;8.17;;
6513;SDS011;3290;47.716;9.070;2022-08-21T03:39:52;11.73;;;9.67;;
6513;SDS011;3290;47.716;9.070;2022-08-21T03:42:18;10.17;;;9.20;;
6513;SDS011;3290;47.716;9.070;2022-08-21T03:44:43;10.17;;;9.17;;
6513;SDS011;3290;47.716;9.070;2022-08-21T03:47:09;12.17;;;9.73;;
6513;SDS011;3290;47.716;9.070;2022-08-21T03:49:35;9.80;;;8.77;;
6513;SDS011;3290;47.716;9.070;2022-08-21T03:52:01;11.37;;;9.07;;
6513;SDS011;3290;47.716;9.070;2022-08-21T03:54:27;10.50;;;8.80;;
6513;SDS011;3290;47.716;9.070;2022-08-21T03:56:53;11.33;;;9.63;;
6513;SDS011;3290;47.716;9.070;2022-08-21T03:59:19;13.80;;;9.80;;
6513;SDS011;3290;47.716;9.070;2022-08-21T04:01:51;11.40;;;9.40;;
6513;SDS011;3290;47.716;9.070;2022-08-21T04:04:21;12.43;;;8.70;;
6513;SDS011;3290;47.716;9.070;2022-08-21T04:06:46;13.63;;;10.60;;
6513;SDS011;3290;47.716;9.070;2022-08-21T04:09:12;12.13;;;10.50;;
6513;SDS011;3290;47.716;9.070;2022-08-21T04:11:37;12.50;;;10.10;;
6513;SDS011;3290;47.716;9.070;2022-08-21T04:14:03;13.27;;;10.07;;
6513;SDS011;3290;47.716;9.070;2022-08-21T04:16:29;14.57;;;9.90;;
6513;SDS011;3290;47.716;9.070;2022-08-21T04:18:55;14.30;;;10.33;;
6513;SDS011;3290;47.716;9.070;2022-08-21T04:21:21;15.40;;;10.73;;
6513;SDS011;3290;47.716;9.070;2022-08-21T04:23:47;13.93;;;10.10;;
6513;SDS011;3290;47.716;9.070;2022-08-21T04:26:13;13.70;;;11.43;;
6513;SDS011;3290;47.716;9.070;2022-08-21T04:28:38;12.80;;;9.83;;
6513;SDS011;3290;47.716;9.070;2022-08-21T04:31:03;11.90;;;9.30;;
6513;SDS011;3290;47.716;9.070;2022-08-21T04:33:29;11.30;;;8.53;;
6513;SDS011;3290;47.716;9.070;2022-08-21T04:35:54;11.53;;;9.20;;
6513;SDS011;3290;47.716;9.070;2022-08-21T04:38:20;13.33;;;9.43;;
6513;SDS011;3290;47.716;9.070;2022-08-21T04:40:46;12.27;;;10.37;;
6513;SDS011;3290;47.716;9.070;2022-08-21T04:43:13;11.73;;;8.70;;
6513;SDS011;3290;47.716;9.070;2022-08-21T04:45:41;15.60;;;9.83;;
6513;SDS011;3290;47.716;9.070;2022-08-21T04:48:10;11.50;;;8.80;;
6513;SDS011;3290;47.716;9.070;2022-08-21T04:50:42;11.37;;;9.00;;
6513;SDS011;3290;47.716;9.070;2022-08-21T04:53:16;11.90;;;9.77;;
6513;SDS011;3290;47.716;9.070;2022-08-21T04:55:45;11.50;;;9.13;;
6513;SDS011;3290;47.716;9.070;2022-08-21T04:58:13;14.20;;;9.70;;
6513;SDS011;3290;47.716;9.070;2022-08-21T05:00:42;11.40;;;9.23;;
6513;SDS011;3290;47.716;9.070;2022-08-21T05:03:09;13.27;;;9.80;;
6513;SDS011;3290;47.716;9.070;2022-08-21T05:05:36;11.13;;;9.03;;
6513;SDS011;3290;47.716;9.070;2022-08-21T05:08:03;11.83;;;8.40;;
6513;SDS011;3290;47.716;9.070;2022-08-21T05:10:29;13.20;;;8.90;;
6513;SDS011;3290;47.716;9.070;2022-08-21T05:12:56;9.53;;;7.73;;
6513;SDS011;3290;47.716;9.070;2022-08-21T05:15:22;12.27;;;9.77;;
6513;SDS011;3290;47.716;9.070;2022-08-21T05:17:48;11.00;;;8.70;;
6513;SDS011;3290;47.716;9.070;2022-08-21T05:20:15;11.30;;;8.40;;
6513;SDS011;3290;47.716;9.070;2022-08-21T05:22:41;10.57;;;8.63;;
6513;SDS011;3290;47.716;9.070;2022-08-21T05:25:07;10.40;;;8.50;;
6513;SDS011;3290;47.716;9.070;2022-08-21T05:27:33;12.50;;;9.87;;
6513;SDS011;3290;47.716;9.070;2022-08-21T05:29:59;13.27;;;9.40;;
6513;SDS011;3290;47.716;9.070;2022-08-21T05:32:24;15.93;;;9.87;;
6513;SDS011;3290;47.716;9.070;2022-08-21T05:34:50;16.70;;;12.00;;
6513;SDS011;3290;47.716;9.070;2022-08-21T05:37:15;13.47;;;10.03;;
6513;SDS011;3290;47.716;9.070;2022-08-21T05:39:41;14.13;;;10.33;;
6513;SDS011;3290;47.716;9.070;2022-08-21T05:42:07;13.17;;;10.13;;
6513;SDS011;3290;47.716;9.070;2022-08-21T05:44:33;17.77;;;11.10;;
6513;SDS011;3290;47.716;9.070;2022-08-21T05:47:05;13.10;;;9.80;;
6513;SDS011;3290;47.716;9.070;2022-08-21T05:49:32;12.30;;;9.33;;
6513;SDS011;3290;47.716;9.070;2022-08-21T05:51:58;11.47;;;8.77;;
6513;SDS011;3290;47.716;9.070;2022-08-21T05:54:24;9.70;;;7.90;;
6513;SDS011;3290;47.716;9.070;2022-08-21T05:56:50;11.63;;;7.97;;
6513;SDS011;3290;47.716;9.070;2022-08-21T05:59:15;7.90;;;6.63;;
6513;SDS011;3290;47.716;9.070;2022-08-21T06:01:41;8.60;;;6.97;;
6513;SDS011;3290;47.716;9.070;2022-08-21T06:04:06;8.37;;;7.10;;
6513;SDS011;3290;47.716;9.070;2022-08-21T06:06:32;10.00;;;6.90;;
6513;SDS011;3290;47.716;9.070;2022-08-21T06:08:58;9.20;;;7.27;;
6513;SDS011;3290;47.716;9.070;2022-08-21T06:11:24;10.77;;;7.73;;
6513;SDS011;3290;47.716;9.070;2022-08-21T06:13:49;13.90;;;9.03;;
6513;SDS011;3290;47.716;9.070;2022-08-21T06:16:15;14.03;;;10.67;;
6513;SDS011;3290;47.716;9.070;2022-08-21T06:18:41;14.43;;;9.30;;
6513;SDS011;3290;47.716;9.070;2022-08-21T06:21:08;11.93;;;8.83;;
6513;SDS011;3290;47.716;9.070;2022-08-21T06:23:34;10.80;;;8.50;;
6513;SDS011;3290;47.716;9.070;2022-08-21T06:26:03;10.57;;;7.97;;
6513;SDS011;3290;47.716;9.070;2022-08-21T06:28:30;9.57;;;8.27;;
6513;SDS011;3290;47.716;9.070;2022-08-21T06:30:56;11.83;;;8.30;;
6513;SDS011;3290;47.716;9.070;2022-08-21T06:33:22;11.17;;;8.40;;
6513;SDS011;3290;47.716;9.070;2022-08-21T06:35:48;11.83;;;7.67;;
6513;SDS011;3290;47.716;9.070;2022-08-21T06:38:13;10.17;;;8.13;;
6513;SDS011;3290;47.716;9.070;2022-08-21T06:40:39;12.33;;;8.67;;
6513;SDS011;3290;47.716;9.070;2022-08-21T06:43:06;11.90;;;8.40;;
6513;SDS011;3290;47.716;9.070;2022-08-21T06:45:36;9.30;;;6.23;;
6513;SDS011;3290;47.716;9.070;2022-08-21T06:48:02;7.37;;;6.47;;
6513;SDS011;3290;47.716;9.070;2022-08-21T06:50:28;8.93;;;6.43;;
6513;SDS011;3290;47.716;9.070;2022-08-21T06:53:01;7.10;;;6.30;;
6513;SDS011;3290;47.716;9.070;2022-08-21T06:55:30;6.70;;;5.60;;
6513;SDS011;3290;47.716;9.070;2022-08-21T06:57:55;7.03;;;5.13;;
6513;SDS011;3290;47.716;9.070;2022-08-21T07:00:21;6.27;;;4.67;;
6513;SDS011;3290;47.716;9.070;2022-08-21T07:02:46;5.53;;;4.73;;
6513;SDS011;3290;47.716;9.070;2022-08-21T07:05:12;4.10;;;3.47;;
6513;SDS011;3290;47.716;9.070;2022-08-21T07:07:37;4.40;;;3.50;;
6513;SDS011;3290;47.716;9.070;2022-08-21T07:10:03;7.70;;;5.03;;
6513;SDS011;3290;47.716;9.070;2022-08-21T07:12:29;8.73;;;4.03;;
6513;SDS011;3290;47.716;9.070;2022-08-21T07:14:55;6.77;;;4.50;;
6513;SDS011;3290;47.716;9.070;2022-08-21T07:17:20;6.60;;;4.20;;
6513;SDS011;3290;47.716;9.070;2022-08-21T07:19:45;16.23;;;4.00;;
6513;SDS011;3290;47.716;9.070;2022-08-21T07:22:11;7.00;;;4.40;;
6513;SDS011;3290;47.716;9.070;2022-08-21T07:24:39;5.33;;;4.30;;
6513;SDS011;3290;47.716;9.070;2022-08-21T07:27:05;6.23;;;4.00;;
6513;SDS011;3290;47.716;9.070;2022-08-21T07:29:30;4.83;;;4.10;;
6513;SDS011;3290;47.716;9.070;2022-08-21T07:31:56;7.43;;;3.77;;
6513;SDS011;3290;47.716;9.070;2022-08-21T07:34:21;5.27;;;3.43;;
6513;SDS011;3290;47.716;9.070;2022-08-21T07:36:47;5.37;;;3.50;;
6513;SDS011;3290;47.716;9.070;2022-08-21T07:39:12;6.57;;;4.10;;
6513;SDS011;3290;47.716;9.070;2022-08-21T07:41:37;10.83;;;3.40;;
6513;SDS011;3290;47.716;9.070;2022-08-21T07:44:03;2.90;;;2.60;;
6513;SDS011;3290;47.716;9.070;2022-08-21T07:46:28;5.33;;;4.03;;
6513;SDS011;3290;47.716;9.070;2022-08-21T07:48:54;6.17;;;3.40;;
6513;SDS011;3290;47.716;9.070;2022-08-21T07:51:20;5.33;;;3.00;;
6513;SDS011;3290;47.716;9.070;2022-08-21T07:53:49;6.30;;;3.40;;
6513;SDS011;3290;47.716;9.070;2022-08-21T07:56:16;6.83;;;3.60;;
6513;SDS011;3290;47.716;9.070;2022-08-21T07:58:42;4.60;;;3.60;;
6513;SDS011;3290;47.716;9.070;2022-08-21T08:01:07;11.77;;;3.90;;
6513;SDS011;3290;47.716;9.070;2022-08-21T08:03:33;5.03;;;3.80;;
6513;SDS011;3290;47.716;9.070;2022-08-21T08:05:59;6.20;;;4.20;;
6513;SDS011;3290;47.716;9.070;2022-08-21T08:08:25;4.33;;;3.13;;
6513;SDS011;3290;47.716;9.070;2022-08-21T08:10:50;6.63;;;4.67;;
6513;SDS011;3290;47.716;9.070;2022-08-21T08:13:17;6.40;;;5.10;;
6513;SDS011;3290;47.716;9.070;2022-08-21T08:15:43;6.00;;;4.47;;
6513;SDS011;3290;47.716;9.070;2022-08-21T08:18:08;6.13;;;4.13;;
6513;SDS011;3290;47.716;9.070;2022-08-21T08:20:34;4.57;;;3.90;;
6513;SDS011;3290;47.716;9.070;2022-08-21T08:22:59;6.83;;;4.17;;
6513;SDS011;3290;47.716;9.070;2022-08-21T08:25:25;5.57;;;4.03;;
6513;SDS011;3290;47.716;9.070;2022-08-21T08:27:51;6.60;;;4.33;;
6513;SDS011;3290;47.716;9.070;2022-08-21T08:30:18;6.93;;;4.27;;
6513;SDS011;3290;47.716;9.070;2022-08-21T08:32:44;9.80;;;3.60;;
6513;SDS011;3290;47.716;9.070;2022-08-21T08:35:13;4.07;;;3.47;;
6513;SDS011;3290;47.716;9.070;2022-08-21T08:37:39;6.17;;;3.60;;
6513;SDS011;3290;47.716;9.070;2022-08-21T08:40:13;6.20;;;4.00;;
6513;SDS011;3290;47.716;9.070;2022-08-21T08:42:47;3.97;;;3.20;;
6513;SDS011;3290;47.716;9.070;2022-08-21T08:45:13;7.57;;;4.20;;
6513;SDS011;3290;47.716;9.070;2022-08-21T08:47:52;4.50;;;3.60;;
6513;SDS011;3290;47.716;9.070;2022-08-21T08:53:17;4.83;;;3.10;;
6513;SDS011;3290;47.716;9.070;2022-08-21T08:55:47;4.50;;;3.80;;
6513;SDS011;3290;47.716;9.070;2022-08-21T08:58:19;4.10;;;3.53;;
6513;SDS011;3290;47.716;9.070;2022-08-21T09:00:50;4.60;;;3.23;;
6513;SDS011;3290;47.716;9.070;2022-08-21T09:03:17;5.43;;;3.50;;
6513;SDS011;3290;47.716;9.070;2022-08-21T09:05:48;5.70;;;3.57;;
6513;SDS011;3290;47.716;9.070;2022-08-21T09:08:24;3.87;;;2.80;;
6513;SDS011;3290;47.716;9.070;2022-08-21T09:10:55;3.00;;;2.70;;
6513;SDS011;3290;47.716;9.070;2022-08-21T09:13:48;4.53;;;3.40;;
6513;SDS011;3290;47.716;9.070;2022-08-21T09:16:28;3.77;;;3.43;;
6513;SDS011;3290;47.716;9.070;2022-08-21T09:19:05;6.27;;;2.90;;
6513;SDS011;3290;47.716;9.070;2022-08-21T09:21:52;5.27;;;2.83;;
6513;SDS011;3290;47.716;9.070;2022-08-21T09:24:37;2.93;;;2.73;;
6513;SDS011;3290;47.716;9.070;2022-08-21T09:27:16;4.43;;;3.50;;
6513;SDS011;3290;47.716;9.070;2022-08-21T09:29:44;3.60;;;3.30;;
6513;SDS011;3290;47.716;9.070;2022-08-21T09:34:42;5.03;;;3.47;;
6513;SDS011;3290;47.716;9.070;2022-08-21T09:37:15;4.20;;;3.80;;
6513;SDS011;3290;47.716;9.070;2022-08-21T09:39:42;4.60;;;3.57;;
6513;SDS011;3290;47.716;9.070;2022-08-21T09:42:09;5.90;;;4.10;;
6513;SDS011;3290;47.716;9.070;2022-08-21T09:44:36;4.20;;;3.80;;
6513;SDS011;3290;47.716;9.070;2022-08-21T09:47:05;5.33;;;3.70;;
6513;SDS011;3290;47.716;9.070;2022-08-21T09:49:37;5.43;;;3.60;;
6513;SDS011;3290;47.716;9.070;2022-08-21T09:52:10;5.03;;;3.07;;
6513;SDS011;3290;47.716;9.070;2022-08-21T09:54:45;5.77;;;3.63;;
6513;SDS011;3290;47.716;9.070;2022-08-21T09:57:18;5.13;;;3.30;;
6513;SDS011;3290;47.716;9.070;2022-08-21T10:00:08;4.33;;;3.60;;
6513;SDS011;3290;47.716;9.070;2022-08-21T10:02:40;3.03;;;2.73;;
6513;SDS011;3290;47.716;9.070;2022-08-21T10:05:15;3.87;;;3.20;;
6513;SDS011;3290;47.716;9.070;2022-08-21T10:07:47;5.57;;;3.33;;
6513;SDS011;3290;47.716;9.070;2022-08-21T10:10:15;4.60;;;3.13;;
6513;SDS011;3290;47.716;9.070;2022-08-21T10:12:59;5.50;;;3.40;;
6513;SDS011;3290;47.716;9.070;2022-08-21T10:18:14;3.90;;;3.20;;
6513;SDS011;3290;47.716;9.070;2022-08-21T10:20:45;4.70;;;2.80;;
6513;SDS011;3290;47.716;9.070;2022-08-21T10:25:57;4.53;;;2.57;;
6513;SDS011;3290;47.716;9.070;2022-08-21T10:28:37;4.83;;;3.03;;
6513;SDS011;3290;47.716;9.070;2022-08-21T10:34:28;5.03;;;2.80;;
6513;SDS011;3290;47.716;9.070;2022-08-21T10:37:01;5.03;;;2.80;;
6513;SDS011;3290;47.716;9.070;2022-08-21T10:42:42;4.70;;;2.83;;
6513;SDS011;3290;47.716;9.070;2022-08-21T10:58:48;3.07;;;2.50;;
6513;SDS011;3290;47.716;9.070;2022-08-21T11:01:28;8.70;;;3.03;;
6513;SDS011;3290;47.716;9.070;2022-08-21T11:06:45;5.83;;;2.10;;
6513;SDS011;3290;47.716;9.070;2022-08-21T11:09:15;4.97;;;2.53;;
6513;SDS011;3290;47.716;9.070;2022-08-21T11:11:50;8.53;;;2.93;;
6513;SDS011;3290;47.716;9.070;2022-08-21T11:16:58;4.20;;;1.97;;
6513;SDS011;3290;47.716;9.070;2022-08-21T11:19:31;2.77;;;2.27;;
6513;SDS011;3290;47.716;9.070;2022-08-21T11:22:17;3.53;;;1.90;;
6513;SDS011;3290;47.716;9.070;2022-08-21T11:29:58;3.73;;;2.20;;
6513;SDS011;3290;47.716;9.070;2022-08-21T11:45:45;3.00;;;2.27;;
6513;SDS011;3290;47.716;9.070;2022-08-21T11:50:58;4.17;;;1.93;;
6513;SDS011;3290;47.716;9.070;2022-08-21T11:53:31;6.00;;;2.40;;
6513;SDS011;3290;47.716;9.070;2022-08-21T11:56:14;3.73;;;2.10;;
6513;SDS011;3290;47.716;9.070;2022-08-21T11:58:49;4.47;;;2.10;;
6513;SDS011;3290;47.716;9.070;2022-08-21T12:01:25;4.23;;;2.33;;
6513;SDS011;3290;47.716;9.070;2022-08-21T12:03:56;5.63;;;2.13;;
6513;SDS011;3290;47.716;9.070;2022-08-21T12:06:39;2.50;;;2.10;;
6513;SDS011;3290;47.716;9.070;2022-08-21T12:09:10;5.70;;;2.60;;
6513;SDS011;3290;47.716;9.070;2022-08-21T12:12:00;3.60;;;2.33;;
6513;SDS011;3290;47.716;9.070;2022-08-21T12:14:42;3.50;;;1.97;;
6513;SDS011;3290;47.716;9.070;2022-08-21T12:17:19;4.43;;;2.50;;
6513;SDS011;3290;47.716;9.070;2022-08-21T12:20:02;5.73;;;2.40;;
6513;SDS011;3290;47.716;9.070;2022-08-21T12:22:47;3.47;;;2.20;;
6513;SDS011;3290;47.716;9.070;2022-08-21T12:25:17;4.47;;;2.03;;
6513;SDS011;3290;47.716;9.070;2022-08-21T12:27:46;5.37;;;2.20;;
6513;SDS011;3290;47.716;9.070;2022-08-21T12:32:56;3.70;;;2.00;;
6513;SDS011;3290;47.716;9.070;2022-08-21T12:36:01;10.33;;;2.40;;
6513;SDS011;3290;47.716;9.070;2022-08-21T12:38:28;5.60;;;1.97;;
6513;SDS011;3290;47.716;9.070;2022-08-21T12:40:59;1.87;;;1.60;;
6513;SDS011;3290;47.716;9.070;2022-08-21T12:43:33;4.33;;;1.97;;
6513;SDS011;3290;47.716;9.070;2022-08-21T12:46:03;2.83;;;2.00;;
6513;SDS011;3290;47.716;9.070;2022-08-21T12:48:41;11.40;;;1.80;;
6513;SDS011;3290;47.716;9.070;2022-08-21T12:51:31;3.90;;;1.70;;
6513;SDS011;3290;47.716;9.070;2022-08-21T12:54:03;7.20;;;2.00;;
6513;SDS011;3290;47.716;9.070;2022-08-21T12:56:32;3.40;;;2.00;;
6513;SDS011;3290;47.716;9.070;2022-08-21T12:59:02;3.37;;;1.70;;
6513;SDS011;3290;47.716;9.070;2022-08-21T13:01:34;4.10;;;1.90;;
6513;SDS011;3290;47.716;9.070;2022-08-21T13:04:07;2.10;;;1.33;;
6513;SDS011;3290;47.716;9.070;2022-08-21T13:06:40;3.80;;;1.57;;
6513;SDS011;3290;47.716;9.070;2022-08-21T13:09:10;2.57;;;1.70;;
6513;SDS011;3290;47.716;9.070;2022-08-21T13:11:42;3.60;;;1.63;;
6513;SDS011;3290;47.716;9.070;2022-08-21T13:14:14;1.93;;;1.40;;
6513;SDS011;3290;47.716;9.070;2022-08-21T13:16:53;2.00;;;1.60;;
6513;SDS011;3290;47.716;9.070;2022-08-21T13:19:20;4.37;;;1.77;;
6513;SDS011;3290;47.716;9.070;2022-08-21T13:21:45;1.60;;;1.33;;
6513;SDS011;3290;47.716;9.070;2022-08-21T13:24:19;3.43;;;1.60;;
6513;SDS011;3290;47.716;9.070;2022-08-21T13:26:48;1.60;;;1.50;;
6513;SDS011;3290;47.716;9.070;2022-08-21T13:29:15;3.90;;;2.07;;
6513;SDS011;3290;47.716;9.070;2022-08-21T13:31:53;1.70;;;1.23;;
6513;SDS011;3290;47.716;9.070;2022-08-21T13:34:21;3.07;;;1.50;;
6513;SDS011;3290;47.716;9.070;2022-08-21T13:36:51;2.40;;;1.40;;
6513;SDS011;3290;47.716;9.070;2022-08-21T13:39:19;2.50;;;1.20;;
6513;SDS011;3290;47.716;9.070;2022-08-21T13:41:48;1.43;;;1.33;;
6513;SDS011;3290;47.716;9.070;2022-08-21T13:46:45;1.57;;;1.07;;
6513;SDS011;3290;47.716;9.070;2022-08-21T13:49:13;1.73;;;1.30;;
6513;SDS011;3290;47.716;9.070;2022-08-21T13:51:42;5.40;;;1.30;;
6513;SDS011;3290;47.716;9.070;2022-08-21T13:54:16;1.60;;;1.30;;
6513;SDS011;3290;47.716;9.070;2022-08-21T13:56:48;1.37;;;1.27;;
6513;SDS011;3290;47.716;9.070;2022-08-21T13:59:23;1.73;;;1.40;;
6513;SDS011;3290;47.716;9.070;2022-08-21T14:06:57;1.60;;;1.43;;
6513;SDS011;3290;47.716;9.070;2022-08-21T14:09:33;1.40;;;1.30;;
6513;SDS011;3290;47.716;9.070;2022-08-21T14:12:12;1.30;;;1.00;;
6513;SDS011;3290;47.716;9.070;2022-08-21T14:14:44;5.23;;;1.43;;
6513;SDS011;3290;47.716;9.070;2022-08-21T14:17:12;2.53;;;1.30;;
6513;SDS011;3290;47.716;9.070;2022-08-21T14:19:50;2.33;;;1.70;;
6513;SDS011;3290;47.716;9.070;2022-08-21T14:25:00;2.00;;;1.20;;
6513;SDS011;3290;47.716;9.070;2022-08-21T14:27:31;2.40;;;1.30;;
6513;SDS011;3290;47.716;9.070;2022-08-21T14:30:03;1.73;;;1.20;;
6513;SDS011;3290;47.716;9.070;2022-08-21T14:32:39;1.83;;;1.37;;
6513;SDS011;3290;47.716;9.070;2022-08-21T14:35:06;4.37;;;1.53;;
6513;SDS011;3290;47.716;9.070;2022-08-21T14:37:32;3.27;;;1.00;;
6513;SDS011;3290;47.716;9.070;2022-08-21T14:39:58;1.67;;;1.40;;
6513;SDS011;3290;47.716;9.070;2022-08-21T14:42:24;2.80;;;1.33;;
6513;SDS011;3290;47.716;9.070;2022-08-21T14:44:49;2.00;;;1.60;;
6513;SDS011;3290;47.716;9.070;2022-08-21T14:47:15;2.30;;;1.30;;
6513;SDS011;3290;47.716;9.070;2022-08-21T14:49:41;4.67;;;1.80;;
6513;SDS011;3290;47.716;9.070;2022-08-21T14:52:06;5.83;;;1.50;;
6513;SDS011;3290;47.716;9.070;2022-08-21T14:54:32;1.20;;;1.10;;
6513;SDS011;3290;47.716;9.070;2022-08-21T14:56:59;2.83;;;1.30;;
6513;SDS011;3290;47.716;9.070;2022-08-21T14:59:27;3.37;;;1.93;;
6513;SDS011;3290;47.716;9.070;2022-08-21T15:01:52;5.23;;;1.73;;
6513;SDS011;3290;47.716;9.070;2022-08-21T15:04:18;1.20;;;0.97;;
6513;SDS011;3290;47.716;9.070;2022-08-21T15:06:43;1.77;;;1.30;;
6513;SDS011;3290;47.716;9.070;2022-08-21T15:09:09;4.20;;;1.20;;
6513;SDS011;3290;47.716;9.070;2022-08-21T15:11:34;1.60;;;1.10;;
6513;SDS011;3290;47.716;9.070;2022-08-21T15:14:01;1.73;;;1.33;;
6513;SDS011;3290;47.716;9.070;2022-08-21T15:16:29;4.43;;;1.57;;
6513;SDS011;3290;47.716;9.070;2022-08-21T15:18:58;1.53;;;1.30;;
6513;SDS011;3290;47.716;9.070;2022-08-21T15:21:23;2.00;;;1.33;;
6513;SDS011;3290;47.716;9.070;2022-08-21T15:23:49;2.13;;;1.10;;
6513;SDS011;3290;47.716;9.070;2022-08-21T15:26:14;1.10;;;1.00;;
6513;SDS011;3290;47.716;9.070;2022-08-21T15:28:40;1.67;;;1.37;;
6513;SDS011;3290;47.716;9.070;2022-08-21T15:31:05;1.50;;;1.30;;
6513;SDS011;3290;47.716;9.070;2022-08-21T15:33:32;1.87;;;1.30;;
6513;SDS011;3290;47.716;9.070;2022-08-21T15:35:57;3.07;;;1.40;;
6513;SDS011;3290;47.716;9.070;2022-08-21T15:38:23;1.73;;;1.30;;
6513;SDS011;3290;47.716;9.070;2022-08-21T15:40:48;1.43;;;1.20;;
6513;SDS011;3290;47.716;9.070;2022-08-21T15:43:27;2.20;;;1.20;;
6513;SDS011;3290;47.716;9.070;2022-08-21T15:45:56;1.43;;;1.30;;
6513;SDS011;3290;47.716;9.070;2022-08-21T15:48:24;1.90;;;1.40;;
6513;SDS011;3290;47.716;9.070;2022-08-21T15:50:49;1.57;;;1.40;;
6513;SDS011;3290;47.716;9.070;2022-08-21T15:53:15;1.37;;;1.10;;
6513;SDS011;3290;47.716;9.070;2022-08-21T15:55:40;3.10;;;1.37;;
6513;SDS011;3290;47.716;9.070;2022-08-21T15:58:06;6.10;;;1.20;;
6513;SDS011;3290;47.716;9.070;2022-08-21T16:00:34;2.13;;;1.20;;
6513;SDS011;3290;47.716;9.070;2022-08-21T16:03:00;1.53;;;1.27;;
6513;SDS011;3290;47.716;9.070;2022-08-21T16:05:29;1.77;;;1.10;;
6513;SDS011;3290;47.716;9.070;2022-08-21T16:07:56;2.67;;;1.40;;
6513;SDS011;3290;47.716;9.070;2022-08-21T16:10:23;3.87;;;1.40;;
6513;SDS011;3290;47.716;9.070;2022-08-21T16:12:50;2.53;;;1.63;;
6513;SDS011;3290;47.716;9.070;2022-08-21T16:15:21;1.67;;;1.20;;
6513;SDS011;3290;47.716;9.070;2022-08-21T16:17:47;1.37;;;1.10;;
6513;SDS011;3290;47.716;9.070;2022-08-21T16:20:17;2.23;;;1.30;;
6513;SDS011;3290;47.716;9.070;2022-08-21T16:22:46;3.27;;;1.40;;
6513;SDS011;3290;47.716;9.070;2022-08-21T16:25:13;2.10;;;1.50;;
6513;SDS011;3290;47.716;9.070;2022-08-21T16:27:39;2.37;;;1.33;;
6513;SDS011;3290;47.716;9.070;2022-08-21T16:30:06;1.50;;;1.30;;
6513;SDS011;3290;47.716;9.070;2022-08-21T16:32:32;1.30;;;1.20;;